createdAt,value
2018-10-11T00:02:23.405Z,19.10
2018-10-11T00:04:52.099Z,19.10
2018-10-11T00:07:20.368Z,19.10
2018-10-11T00:09:49.498Z,19.10
2018-10-11T00:12:17.742Z,19.10
2018-10-11T00:14:45.981Z,19.00
2018-10-11T00:17:14.593Z,19.00
2018-10-11T00:19:42.846Z,19.00
2018-10-11T00:22:11.127Z,19.00
2018-10-11T00:24:39.359Z,19.00
2018-10-11T00:27:07.547Z,18.90
2018-10-11T00:29:35.792Z,18.90
2018-10-11T00:32:04.034Z,18.90
2018-10-11T00:34:32.288Z,18.90
2018-10-11T00:37:00.537Z,18.80
2018-10-11T00:39:28.857Z,18.80
2018-10-11T00:41:57.122Z,18.80
2018-10-11T00:44:25.330Z,18.70
2018-10-11T00:46:53.588Z,18.70
2018-10-11T00:49:21.845Z,18.70
2018-10-11T00:51:50.044Z,18.70
2018-10-11T00:54:18.315Z,18.70
2018-10-11T00:56:46.564Z,18.70
2018-10-11T00:59:14.774Z,18.60
2018-10-11T01:01:43.000Z,18.70
2018-10-11T01:04:11.798Z,18.70
2018-10-11T01:06:40.327Z,18.60
2018-10-11T01:09:10.108Z,18.60
2018-10-11T01:11:38.331Z,18.60
2018-10-11T01:14:07.047Z,18.50
2018-10-11T01:16:35.262Z,18.60
2018-10-11T01:19:03.563Z,18.60
2018-10-11T01:21:31.845Z,18.60
2018-10-11T01:24:00.083Z,18.60
2018-10-11T01:26:28.426Z,18.50
2018-10-11T01:28:56.680Z,18.50
2018-10-11T01:31:25.520Z,18.50
2018-10-11T01:33:54.087Z,18.50
2018-10-11T01:36:22.566Z,18.50
2018-10-11T01:38:52.503Z,18.40
2018-10-11T01:41:21.365Z,18.40
2018-10-11T01:43:49.584Z,18.40
2018-10-11T01:46:17.795Z,18.40
2018-10-11T01:48:46.091Z,18.30
2018-10-11T01:51:14.355Z,18.30
2018-10-11T01:53:42.776Z,18.30
2018-10-11T01:56:11.026Z,18.30
2018-10-11T01:58:39.326Z,18.30
2018-10-11T02:01:07.621Z,18.30
2018-10-11T02:03:35.919Z,18.30
2018-10-11T02:06:04.176Z,18.30
2018-10-11T02:08:32.459Z,18.20
2018-10-11T02:11:00.722Z,18.20
2018-10-11T02:13:28.933Z,18.20
2018-10-11T02:15:57.191Z,18.20
2018-10-11T02:18:25.450Z,18.10
2018-10-11T02:20:53.681Z,18.20
2018-10-11T02:23:21.917Z,18.10
2018-10-11T02:25:50.143Z,18.10
2018-10-11T02:28:18.404Z,18.10
2018-10-11T02:30:49.583Z,18.00
2018-10-11T02:33:17.831Z,18.00
2018-10-11T02:35:46.114Z,18.00
2018-10-11T02:38:14.330Z,17.90
2018-10-11T02:40:42.590Z,18.00
2018-10-11T02:43:10.856Z,18.00
2018-10-11T02:45:39.117Z,18.00
2018-10-11T02:48:07.668Z,17.90
2018-10-11T02:50:35.934Z,18.00
2018-10-11T02:53:04.142Z,17.90
2018-10-11T02:55:32.423Z,18.00
2018-10-11T02:59:13.866Z,18.00
2018-10-11T03:01:42.097Z,18.00
2018-10-11T03:04:10.368Z,17.90
2018-10-11T03:06:45.928Z,17.80
2018-10-11T03:09:14.306Z,17.80
2018-10-11T03:11:42.515Z,17.80
2018-10-11T03:14:10.800Z,17.80
2018-10-11T03:16:39.095Z,17.80
2018-10-11T03:19:07.333Z,17.80
2018-10-11T03:21:35.549Z,17.80
2018-10-11T03:24:03.848Z,17.80
2018-10-11T03:26:32.066Z,17.80
2018-10-11T03:29:00.319Z,17.70
2018-10-11T03:31:28.706Z,17.70
2018-10-11T03:33:56.964Z,17.70
2018-10-11T03:36:25.227Z,17.70
2018-10-11T03:38:53.453Z,17.70
2018-10-11T03:41:21.751Z,17.70
2018-10-11T03:43:49.990Z,17.60
2018-10-11T03:46:18.282Z,17.60
2018-10-11T03:48:46.471Z,17.60
2018-10-11T03:51:14.746Z,17.60
2018-10-11T03:53:42.976Z,17.60
2018-10-11T03:56:11.249Z,17.50
2018-10-11T03:58:39.454Z,17.50
2018-10-11T04:01:07.710Z,17.50
2018-10-11T04:03:35.927Z,17.50
2018-10-11T04:06:04.236Z,17.50
2018-10-11T04:08:32.458Z,17.40
2018-10-11T04:11:00.775Z,17.40
2018-10-11T04:13:29.011Z,17.40
2018-10-11T04:15:57.266Z,17.40
2018-10-11T04:18:25.524Z,17.30
2018-10-11T04:20:53.743Z,17.30
2018-10-11T04:23:27.396Z,17.30
2018-10-11T04:25:55.734Z,17.30
2018-10-11T04:28:24.398Z,17.30
2018-10-11T04:30:52.689Z,17.30
2018-10-11T04:33:20.955Z,17.30
2018-10-11T04:35:49.212Z,17.20
2018-10-11T04:38:17.445Z,17.20
2018-10-11T04:40:46.439Z,17.20
2018-10-11T04:43:14.802Z,17.20
2018-10-11T04:45:43.938Z,17.10
2018-10-11T04:48:12.522Z,17.10
2018-10-11T04:50:42.351Z,17.10
2018-10-11T04:53:11.336Z,17.10
2018-10-11T04:55:39.574Z,17.10
2018-10-11T04:58:07.928Z,17.10
2018-10-11T05:00:36.190Z,17.10
2018-10-11T05:03:04.441Z,17.00
2018-10-11T05:05:32.733Z,17.10
2018-10-11T05:08:00.983Z,17.10
2018-10-11T05:10:29.304Z,17.10
2018-10-11T05:12:57.670Z,17.10
2018-10-11T05:15:26.847Z,17.00
2018-10-11T05:17:55.125Z,17.00
2018-10-11T05:20:23.382Z,17.00
2018-10-11T05:22:51.658Z,17.00
2018-10-11T05:25:19.982Z,17.00
2018-10-11T05:27:48.271Z,17.00
2018-10-11T05:30:16.523Z,17.10
2018-10-11T05:32:44.747Z,17.00
2018-10-11T05:35:13.139Z,17.00
2018-10-11T05:37:41.409Z,17.00
2018-10-11T05:40:09.703Z,17.00
2018-10-11T05:42:38.365Z,16.90
2018-10-11T05:45:17.758Z,16.90
2018-10-11T05:47:46.640Z,16.90
2018-10-11T05:50:14.894Z,16.90
2018-10-11T05:52:44.653Z,16.80
2018-10-11T05:55:13.041Z,16.80
2018-10-11T05:57:41.363Z,16.80
2018-10-11T06:00:10.247Z,16.90
2018-10-11T06:02:58.609Z,16.90
2018-10-11T06:05:27.304Z,16.90
2018-10-11T06:07:55.569Z,16.90
2018-10-11T06:10:24.429Z,16.90
2018-10-11T06:12:52.674Z,17.00
2018-10-11T06:15:20.896Z,17.00
2018-10-11T06:17:49.283Z,17.00
2018-10-11T06:20:17.452Z,17.00
2018-10-11T06:22:45.856Z,17.10
2018-10-11T06:25:14.196Z,17.20
2018-10-11T06:27:42.770Z,17.30
2018-10-11T06:30:11.999Z,17.30
2018-10-11T06:32:40.238Z,17.40
2018-10-11T06:35:08.547Z,17.40
2018-10-11T06:37:36.776Z,17.40
2018-10-11T06:40:05.038Z,17.40
2018-10-11T06:42:33.726Z,17.40
2018-10-11T06:45:02.280Z,17.40
2018-10-11T06:47:31.470Z,17.40
2018-10-11T06:50:00.871Z,17.40
2018-10-11T06:52:28.996Z,17.50
2018-10-11T06:54:57.280Z,17.60
2018-10-11T06:57:25.547Z,17.60
2018-10-11T06:59:53.875Z,17.60
2018-10-11T07:02:22.179Z,17.50
2018-10-11T07:04:50.467Z,17.50
2018-10-11T07:07:18.779Z,17.40
2018-10-11T07:09:46.988Z,17.40
2018-10-11T07:12:15.210Z,17.30
2018-10-11T07:14:43.507Z,17.30
2018-10-11T07:17:11.775Z,17.30
2018-10-11T07:22:16.358Z,17.40
2018-10-11T07:24:44.587Z,17.40
2018-10-11T07:27:12.853Z,17.40
2018-10-11T07:29:41.130Z,17.50
2018-10-11T07:32:09.560Z,17.50
2018-10-11T07:34:39.290Z,17.50
2018-10-11T07:37:07.459Z,17.60
2018-10-11T07:39:35.762Z,17.70
2018-10-11T07:42:04.203Z,17.70
2018-10-11T07:44:32.425Z,17.90
2018-10-11T07:47:00.901Z,17.90
2018-10-11T07:49:29.074Z,18.00
2018-10-11T07:51:57.317Z,18.00
2018-10-11T07:54:29.797Z,18.10
2018-10-11T07:56:58.026Z,18.10
2018-10-11T07:59:26.349Z,18.20
2018-10-11T08:01:54.933Z,18.20
2018-10-11T08:04:23.168Z,18.30
2018-10-11T08:06:52.473Z,18.40
2018-10-11T08:09:20.704Z,18.40
2018-10-11T08:11:49.155Z,18.50
2018-10-11T08:14:18.020Z,18.60
2018-10-11T08:16:46.973Z,18.70
2018-10-11T08:19:15.348Z,18.80
2018-10-11T08:21:46.717Z,18.90
2018-10-11T08:24:15.226Z,19.00
2018-10-11T08:26:43.591Z,19.10
2018-10-11T08:29:11.830Z,19.20
2018-10-11T08:31:40.298Z,19.30
2018-10-11T08:34:08.746Z,19.40
2018-10-11T08:36:37.011Z,19.50
2018-10-11T08:39:08.334Z,19.60
2018-10-11T08:41:37.095Z,19.60
2018-10-11T08:44:05.394Z,19.70
2018-10-11T08:46:33.628Z,19.80
2018-10-11T08:49:01.874Z,20.00
2018-10-11T08:51:30.100Z,20.10
2018-10-11T08:54:03.906Z,20.20
2018-10-11T08:56:32.179Z,20.40
2018-10-11T08:59:00.412Z,20.50
2018-10-11T09:01:28.658Z,20.60
2018-10-11T09:03:57.155Z,20.70
2018-10-11T09:06:25.186Z,20.90
2018-10-11T09:08:53.433Z,21.00
2018-10-11T09:11:21.719Z,21.10
2018-10-11T09:13:49.920Z,21.20
2018-10-11T09:16:18.215Z,21.20
2018-10-11T09:18:46.492Z,21.20
2018-10-11T09:21:14.771Z,21.20
2018-10-11T09:23:43.086Z,21.30
2018-10-11T09:26:11.435Z,21.30
2018-10-11T09:28:39.732Z,21.40
2018-10-11T09:31:07.950Z,21.40
2018-10-11T09:33:36.438Z,21.50
2018-10-11T09:36:04.810Z,21.60
2018-10-11T09:38:36.788Z,21.60
2018-10-11T09:41:05.521Z,21.60
2018-10-11T09:43:33.741Z,21.70
2018-10-11T09:46:02.823Z,21.80
2018-10-11T09:48:57.696Z,21.90
2018-10-11T09:51:25.903Z,22.00
2018-10-11T09:53:56.076Z,22.10
2018-10-11T09:57:33.726Z,22.20
2018-10-11T10:00:03.305Z,22.30
2018-10-11T10:02:31.895Z,22.30
2018-10-11T10:05:01.415Z,22.30
2018-10-11T10:07:29.680Z,22.40
2018-10-11T10:09:57.951Z,22.50
2018-10-11T10:12:26.165Z,22.60
2018-10-11T10:14:54.469Z,22.70
2018-10-11T10:17:22.978Z,22.80
2018-10-11T10:19:51.227Z,22.80
2018-10-11T10:22:19.522Z,22.90
2018-10-11T10:24:47.842Z,22.90
2018-10-11T10:27:16.163Z,23.00
2018-10-11T10:29:44.319Z,23.00
2018-10-11T10:32:12.570Z,23.10
2018-10-11T10:34:40.791Z,23.30
2018-10-11T10:37:09.030Z,23.30
2018-10-11T10:39:37.320Z,23.40
2018-10-11T10:42:05.550Z,23.50
2018-10-11T10:44:33.771Z,23.50
2018-10-11T10:47:02.035Z,23.70
2018-10-11T10:49:30.735Z,23.70
2018-10-11T10:51:59.042Z,23.70
2018-10-11T10:54:58.737Z,23.70
2018-10-11T10:57:27.157Z,23.70
2018-10-11T10:59:55.622Z,23.60
2018-10-11T11:02:23.924Z,23.50
2018-10-11T11:04:52.162Z,23.40
2018-10-11T11:07:20.477Z,23.50
2018-10-11T11:09:48.708Z,23.60
2018-10-11T11:12:16.934Z,23.70
2018-10-11T11:14:45.207Z,23.80
2018-10-11T11:17:13.451Z,23.80
2018-10-11T11:19:41.738Z,23.80
2018-10-11T11:22:09.999Z,23.80
2018-10-11T11:24:38.280Z,23.80
2018-10-11T11:27:06.557Z,23.90
2018-10-11T11:29:34.911Z,24.00
2018-10-11T11:32:03.170Z,24.10
2018-10-11T11:34:31.403Z,24.20
2018-10-11T11:36:59.623Z,24.30
2018-10-11T11:39:34.882Z,24.30
2018-10-11T11:42:04.128Z,24.30
2018-10-11T11:44:34.041Z,24.30
2018-10-11T11:52:14.984Z,24.50
2018-10-11T11:54:47.958Z,24.60
2018-10-11T11:57:25.545Z,24.70
2018-10-11T11:59:54.108Z,24.70
2018-10-11T12:02:22.635Z,24.60
2018-10-11T12:04:52.083Z,24.50
2018-10-11T12:07:20.454Z,24.40
2018-10-11T12:09:48.668Z,24.30
2018-10-11T12:13:05.277Z,24.40
2018-10-11T12:15:34.148Z,24.30
2018-10-11T12:18:03.306Z,24.30
2018-10-11T12:20:32.758Z,24.20
2018-10-11T12:23:02.185Z,24.20
2018-10-11T12:25:30.746Z,24.20
2018-10-11T12:27:59.055Z,24.20
2018-10-11T12:30:27.313Z,24.20
2018-10-11T12:32:55.554Z,24.20
2018-10-11T12:35:24.434Z,24.10
2018-10-11T12:37:52.716Z,24.10
2018-10-11T12:40:21.081Z,24.00
2018-10-11T12:42:49.260Z,24.10
2018-10-11T12:45:18.242Z,24.10
2018-10-11T12:47:46.502Z,24.00
2018-10-11T12:50:17.009Z,24.10
2018-10-11T12:52:45.223Z,24.20
2018-10-11T12:55:13.476Z,24.20
2018-10-11T12:57:41.803Z,24.30
2018-10-11T13:00:11.742Z,24.30
2018-10-11T13:02:40.002Z,24.30
2018-10-11T13:05:08.308Z,24.30
2018-10-11T13:07:36.638Z,24.30
2018-10-11T13:10:04.947Z,24.40
2018-10-11T13:12:33.595Z,24.40
2018-10-11T13:15:01.906Z,24.40
2018-10-11T13:17:33.311Z,24.40
2018-10-11T13:19:58.358Z,24.40
2018-10-11T13:22:26.653Z,24.40
2018-10-11T13:24:54.858Z,24.40
2018-10-11T13:27:23.087Z,24.40
2018-10-11T13:29:52.155Z,24.40
2018-10-11T13:32:20.395Z,24.40
2018-10-11T13:34:48.702Z,24.40
2018-10-11T13:37:16.870Z,24.50
2018-10-11T13:39:52.026Z,24.50
2018-10-11T13:42:13.393Z,24.40
2018-10-11T13:44:41.615Z,24.50
2018-10-11T13:47:16.570Z,24.40
2018-10-11T13:49:44.705Z,24.40
2018-10-11T13:52:16.250Z,24.40
2018-10-11T13:54:41.162Z,24.40
2018-10-11T13:57:09.390Z,24.40
2018-10-11T13:59:37.599Z,24.40
2018-10-11T14:02:05.942Z,24.30
2018-10-11T14:04:34.301Z,24.30
2018-10-11T14:07:02.485Z,24.30
2018-10-11T14:09:30.740Z,24.30
2018-10-11T14:11:59.032Z,24.40
2018-10-11T14:14:27.238Z,24.40
2018-10-11T14:16:55.470Z,24.40
2018-10-11T14:19:24.224Z,24.50
2018-10-11T14:21:52.487Z,24.50
2018-10-11T14:24:20.767Z,24.60
2018-10-11T14:26:49.036Z,24.60
2018-10-11T14:29:17.245Z,24.70
2018-10-11T14:31:45.498Z,24.80
2018-10-11T14:34:13.711Z,24.80
2018-10-11T14:36:41.983Z,24.90
2018-10-11T14:39:10.138Z,24.90
2018-10-11T14:41:38.361Z,25.00
2018-10-11T14:44:06.600Z,24.90
2018-10-11T14:46:34.833Z,24.90
2018-10-11T14:49:03.138Z,24.80
2018-10-11T14:51:31.529Z,24.70
2018-10-11T14:53:59.749Z,24.50
2018-10-11T14:56:27.942Z,24.30
2018-10-11T14:58:56.192Z,24.20
2018-10-11T15:01:24.493Z,24.10
2018-10-11T15:03:52.751Z,23.90
2018-10-11T15:06:20.969Z,23.90
2018-10-11T15:08:49.455Z,23.80
2018-10-11T15:11:17.719Z,23.80
2018-10-11T15:13:46.240Z,23.80
2018-10-11T15:16:14.511Z,23.80
2018-10-11T15:18:42.734Z,23.80
2018-10-11T15:21:10.942Z,23.80
2018-10-11T15:23:39.328Z,23.80
2018-10-11T15:26:07.653Z,23.80
2018-10-11T15:28:35.858Z,23.80
2018-10-11T15:31:05.482Z,23.80
2018-10-11T15:33:33.699Z,23.80
2018-10-11T15:36:02.075Z,23.90
2018-10-11T15:38:30.340Z,24.00
2018-10-11T15:40:58.592Z,24.00
2018-10-11T15:43:26.800Z,24.10
2018-10-11T15:45:55.584Z,24.10
2018-10-11T15:48:23.848Z,24.10
2018-10-11T15:50:52.182Z,24.10
2018-10-11T15:53:20.375Z,24.10
2018-10-11T15:55:48.766Z,24.10
2018-10-11T15:58:16.984Z,24.00
2018-10-11T16:00:45.230Z,24.00
2018-10-11T16:03:13.461Z,24.10
2018-10-11T16:05:41.906Z,24.10
2018-10-11T16:08:09.993Z,24.10
2018-10-11T16:10:38.255Z,24.10
2018-10-11T16:13:06.728Z,24.00
2018-10-11T16:15:37.648Z,24.00
2018-10-11T16:18:06.261Z,23.90
2018-10-11T16:20:34.715Z,23.80
2018-10-11T16:23:03.282Z,23.80
2018-10-11T16:25:31.696Z,23.70
2018-10-11T16:27:59.950Z,23.60
2018-10-11T16:30:28.204Z,23.50
2018-10-11T16:32:56.431Z,23.50
2018-10-11T16:35:24.763Z,23.40
2018-10-11T16:37:52.994Z,23.30
2018-10-11T16:40:21.202Z,23.20
2018-10-11T16:42:49.615Z,23.10
2018-10-11T16:45:17.984Z,23.10
2018-10-11T16:47:46.343Z,23.00
2018-10-11T16:50:14.680Z,23.00
2018-10-11T16:52:42.832Z,22.90
2018-10-11T16:55:11.153Z,22.90
2018-10-11T16:57:39.545Z,22.80
2018-10-11T17:00:08.040Z,22.80
2018-10-11T17:02:36.662Z,22.70
2018-10-11T17:05:05.137Z,22.70
2018-10-11T17:07:33.552Z,22.60
2018-10-11T17:10:02.062Z,22.60
2018-10-11T17:12:30.256Z,22.60
2018-10-11T17:14:58.539Z,22.50
2018-10-11T17:17:26.861Z,22.50
2018-10-11T17:19:55.213Z,22.40
2018-10-11T17:22:23.561Z,22.40
2018-10-11T17:24:52.048Z,22.40
2018-10-11T17:27:20.446Z,22.40
2018-10-11T17:29:48.763Z,22.30
2018-10-11T17:32:17.106Z,22.20
2018-10-11T17:34:45.477Z,22.20
2018-10-11T17:37:13.675Z,21.00
2018-10-11T17:39:42.043Z,22.20
2018-10-11T17:42:10.926Z,22.10
2018-10-11T17:44:39.373Z,22.10
2018-10-11T17:47:07.684Z,22.10
2018-10-11T17:49:35.961Z,22.00
2018-10-11T17:52:04.203Z,22.00
2018-10-11T17:54:33.351Z,22.00
2018-10-11T17:57:01.562Z,22.00
2018-10-11T17:59:29.788Z,22.00
2018-10-11T18:01:58.221Z,21.90
2018-10-11T18:04:26.501Z,21.90
2018-10-11T18:06:54.779Z,21.90
2018-10-11T18:09:23.043Z,21.90
2018-10-11T18:11:51.288Z,21.80
2018-10-11T18:14:19.606Z,21.80
2018-10-11T18:16:47.855Z,21.80
2018-10-11T18:19:16.081Z,21.80
2018-10-11T18:21:44.506Z,21.70
2018-10-11T18:24:14.444Z,21.70
2018-10-11T18:26:42.862Z,21.70
2018-10-11T18:29:11.252Z,21.70
2018-10-11T18:31:39.679Z,21.60
2018-10-11T18:34:07.963Z,21.60
2018-10-11T18:36:37.119Z,21.60
2018-10-11T18:39:09.612Z,21.60
2018-10-11T18:41:39.270Z,21.50
2018-10-11T18:44:07.723Z,21.50
2018-10-11T18:46:37.304Z,21.50
2018-10-11T18:49:08.002Z,21.50
2018-10-11T18:51:36.515Z,21.50
2018-10-11T18:54:05.457Z,21.40
2018-10-11T18:56:34.788Z,21.40
2018-10-11T18:59:03.315Z,21.40
2018-10-11T19:01:31.575Z,21.40
2018-10-11T19:04:00.699Z,21.40
2018-10-11T19:06:29.662Z,21.30
2018-10-11T19:08:58.389Z,21.30
2018-10-11T19:11:26.643Z,21.20
2018-10-11T19:13:55.258Z,21.20
2018-10-11T19:16:24.470Z,21.20
2018-10-11T19:18:53.426Z,21.20
2018-10-11T19:21:21.844Z,21.20
2018-10-11T19:23:50.111Z,21.20
2018-10-11T19:26:18.333Z,21.20
2018-10-11T19:28:46.619Z,21.20
2018-10-11T19:31:14.887Z,21.10
2018-10-11T19:33:43.248Z,21.10
2018-10-11T19:36:11.699Z,21.00
2018-10-11T19:38:42.174Z,21.00
2018-10-11T19:41:10.458Z,21.00
2018-10-11T19:43:38.721Z,21.00
2018-10-11T19:46:07.224Z,20.90
2018-10-11T19:48:35.695Z,20.90
2018-10-11T19:51:04.334Z,20.90
2018-10-11T19:53:33.089Z,20.80
2018-10-11T19:56:01.502Z,20.80
2018-10-11T19:58:29.717Z,20.80
2018-10-11T20:00:58.137Z,20.70
2018-10-11T20:03:26.686Z,20.70
2018-10-11T20:05:55.191Z,20.70
2018-10-11T20:08:23.590Z,20.70
2018-10-11T20:10:51.831Z,20.60
2018-10-11T20:13:20.189Z,20.60
2018-10-11T20:15:48.434Z,20.60
2018-10-11T20:18:16.739Z,20.50
2018-10-11T20:20:44.993Z,20.50
2018-10-11T20:23:13.223Z,20.50
2018-10-11T20:25:41.461Z,20.50
2018-10-11T20:28:09.672Z,20.50
2018-10-11T20:30:38.417Z,20.40
2018-10-11T20:33:06.668Z,20.40
2018-10-11T20:35:34.916Z,20.40
2018-10-11T20:38:03.164Z,20.40
2018-10-11T20:40:31.399Z,20.40
2018-10-11T20:42:59.750Z,20.40
2018-10-11T20:45:29.119Z,20.40
2018-10-11T20:47:57.406Z,20.40
2018-10-11T20:50:25.711Z,20.40
2018-10-11T20:52:54.015Z,20.40
2018-10-11T20:55:22.303Z,20.30
2018-10-11T20:57:50.563Z,20.30
2018-10-11T21:00:18.833Z,20.30
2018-10-11T21:02:47.093Z,20.30
2018-10-11T21:05:15.323Z,20.30
2018-10-11T21:07:43.606Z,20.20
2018-10-11T21:10:11.850Z,20.20
2018-10-11T21:12:40.084Z,20.20
2018-10-11T21:15:08.333Z,20.20
2018-10-11T21:17:36.660Z,20.10
2018-10-11T21:20:05.252Z,20.10
2018-10-11T21:22:33.292Z,20.10
2018-10-11T21:25:01.608Z,20.10
2018-10-11T21:27:29.909Z,20.10
2018-10-11T21:29:58.286Z,20.10
2018-10-11T21:32:26.617Z,20.10
2018-10-11T21:34:54.872Z,20.10
2018-10-11T21:37:23.134Z,20.10
2018-10-11T21:39:51.384Z,20.00
2018-10-11T21:42:19.612Z,20.00
2018-10-11T21:44:47.878Z,20.00
2018-10-11T21:47:16.142Z,20.00
2018-10-11T21:49:44.385Z,20.00
2018-10-11T21:52:12.735Z,20.00
2018-10-11T21:54:41.611Z,20.00
2018-10-11T21:57:09.971Z,19.90
2018-10-11T21:59:38.245Z,19.90
2018-10-11T22:02:06.504Z,19.90
2018-10-11T22:04:34.773Z,19.90
2018-10-11T22:07:03.002Z,19.80
2018-10-11T22:09:31.442Z,19.80
2018-10-11T22:11:59.703Z,19.80
2018-10-11T22:14:28.045Z,19.80
2018-10-11T22:16:56.511Z,19.80
2018-10-11T22:19:25.002Z,19.80
2018-10-11T22:21:53.450Z,19.80
2018-10-11T22:24:22.331Z,19.80
2018-10-11T22:26:50.836Z,19.80
2018-10-11T22:29:19.278Z,19.80
2018-10-11T22:31:47.625Z,19.80
2018-10-11T22:34:15.932Z,19.80
2018-10-11T22:36:45.018Z,19.80
2018-10-11T22:39:13.343Z,19.80
2018-10-11T22:41:41.834Z,19.80
2018-10-11T22:44:12.313Z,19.70
2018-10-11T22:46:41.162Z,19.70
2018-10-11T22:49:10.067Z,19.70
2018-10-11T22:51:38.641Z,19.70
2018-10-11T22:54:07.490Z,19.70
2018-10-11T22:56:36.321Z,19.70
2018-10-11T22:59:05.220Z,19.70
2018-10-11T23:01:33.800Z,19.70
2018-10-11T23:04:04.265Z,19.70
2018-10-11T23:06:32.759Z,19.70
2018-10-11T23:09:01.286Z,19.70
2018-10-11T23:11:29.841Z,19.70
2018-10-11T23:13:58.684Z,19.70
2018-10-11T23:16:27.690Z,19.70
2018-10-11T23:18:56.218Z,19.70
2018-10-11T23:21:28.121Z,19.70
2018-10-11T23:23:56.754Z,19.70
2018-10-11T23:26:25.727Z,19.70
2018-10-11T23:28:54.071Z,19.70
2018-10-11T23:31:23.405Z,19.70
2018-10-11T23:33:51.723Z,19.80
2018-10-11T23:36:21.175Z,19.80
2018-10-11T23:38:49.441Z,19.80
2018-10-11T23:41:20.298Z,19.80
2018-10-11T23:43:48.753Z,19.70
2018-10-11T23:46:17.211Z,19.70
2018-10-11T23:48:45.739Z,19.70
2018-10-11T23:51:14.907Z,19.70
2018-10-11T23:53:43.267Z,19.70
2018-10-11T23:56:11.639Z,19.70
2018-10-11T23:58:39.919Z,19.70
